Time;durP1;ratioP1;P1;durP2;ratioP2;P2;SDS_P1;SDS_P2;PMS_P1;PMS_P2;Temp;Humidity;BMP_temperature;BMP_pressure;BME280_temperature;BME280_humidity;BME280_pressure;Samples;Min_cycle;Max_cycle;Signal;HPM_P1;HPM_P2
2022/08/15 00:00:40;;;;;;;7.00;5.83;;;28.70;41.70;;;;;;5084023;28;20471;-88
2022/08/15 00:03:18;;;;;;;6.57;5.67;;;28.70;41.30;;;;;;5073726;28;20545;-85
2022/08/15 00:05:45;;;;;;;8.27;6.00;;;28.70;41.40;;;;;;5054406;28;20455;-85
2022/08/15 00:08:12;;;;;;;6.37;5.43;;;28.70;41.00;;;;;;5070875;28;20474;-85
2022/08/15 00:10:41;;;;;;;5.80;5.20;;;28.80;40.60;;;;;;5087280;28;20498;-88
2022/08/15 00:13:15;;;;;;;8.17;6.17;;;28.80;40.00;;;;;;5090525;28;20541;-88
2022/08/15 00:15:43;;;;;;;6.33;5.33;;;28.50;40.80;;;;;;5091598;28;20455;-85
2022/08/15 00:18:10;;;;;;;7.10;5.87;;;28.50;40.70;;;;;;5071047;28;20955;-86
2022/08/15 00:20:37;;;;;;;5.67;4.80;;;28.50;40.60;;;;;;5089099;28;20523;-87
2022/08/15 00:23:06;;;;;;;6.07;5.47;;;28.50;40.10;;;;;;5091576;28;21309;-85
2022/08/15 00:25:35;;;;;;;5.90;5.17;;;28.60;40.30;;;;;;5086038;28;20530;-85
2022/08/15 00:28:01;;;;;;;9.13;5.63;;;28.60;40.10;;;;;;5091586;28;21048;-87
2022/08/15 00:30:30;;;;;;;5.53;5.03;;;28.70;40.20;;;;;;5054281;28;20485;-85
2022/08/15 00:32:58;;;;;;;9.10;5.67;;;28.60;40.30;;;;;;5074458;28;20505;-85
2022/08/15 00:35:40;;;;;;;5.57;5.07;;;28.50;41.50;;;;;;5062835;28;20447;-86
2022/08/15 00:38:13;;;;;;;6.10;5.50;;;28.50;41.40;;;;;;5073208;28;20471;-85
2022/08/15 00:43:27;;;;;;;5.40;4.90;;;28.50;41.40;;;;;;5056815;28;20454;-86
2022/08/15 00:45:55;;;;;;;6.37;5.20;;;28.50;41.50;;;;;;5074959;28;20448;-87
2022/08/15 00:51:11;;;;;;;6.17;5.57;;;28.50;41.10;;;;;;5070778;28;20476;-87
2022/08/15 00:53:39;;;;;;;6.93;5.77;;;28.50;40.60;;;;;;5088778;28;20436;-85
2022/08/15 00:56:09;;;;;;;6.13;5.47;;;28.40;40.20;;;;;;5072649;28;20439;-86
2022/08/15 00:58:36;;;;;;;5.77;5.27;;;28.40;40.50;;;;;;5071516;28;20440;-87
2022/08/15 01:01:07;;;;;;;6.03;5.53;;;28.30;41.20;;;;;;5089259;28;21149;-84
2022/08/15 01:03:39;;;;;;;8.40;5.57;;;28.30;41.70;;;;;;5070642;28;20478;-85
2022/08/15 01:06:06;;;;;;;6.37;5.33;;;28.30;42.70;;;;;;5081345;28;20543;-85
2022/08/15 01:08:35;;;;;;;5.70;5.20;;;28.30;43.00;;;;;;5072727;28;20463;-85
2022/08/15 01:11:16;;;;;;;6.50;5.90;;;28.30;42.90;;;;;;5078039;28;20500;-85
2022/08/15 01:13:44;;;;;;;6.20;5.60;;;28.30;42.90;;;;;;5068851;28;20444;-85
2022/08/15 01:16:14;;;;;;;8.20;6.37;;;28.30;43.00;;;;;;5072297;28;20523;-85
2022/08/15 01:18:42;;;;;;;7.73;6.40;;;28.30;42.60;;;;;;5088795;28;20447;-87
2022/08/15 01:21:24;;;;;;;5.97;5.20;;;27.90;42.50;;;;;;5072173;28;21190;-86
2022/08/15 01:24:01;;;;;;;5.80;5.20;;;27.90;42.70;;;;;;5070442;28;20497;-86
2022/08/15 01:26:29;;;;;;;5.97;5.37;;;28.00;42.30;;;;;;5086327;28;20448;-85
2022/08/15 01:28:57;;;;;;;6.67;5.83;;;27.50;42.90;;;;;;5077806;28;20479;-86
2022/08/15 01:31:25;;;;;;;6.83;5.67;;;27.50;43.00;;;;;;5064625;28;20482;-85
2022/08/15 01:33:56;;;;;;;9.20;6.10;;;27.70;43.10;;;;;;5071756;28;20463;-84
2022/08/15 01:36:26;;;;;;;6.53;5.97;;;27.80;42.90;;;;;;5059115;28;20949;-86
2022/08/15 01:39:00;;;;;;;6.00;5.40;;;27.90;42.80;;;;;;5053724;28;20509;-87
2022/08/15 01:41:36;;;;;;;5.60;5.10;;;28.00;43.00;;;;;;5056252;28;20483;-85
2022/08/15 01:44:11;;;;;;;5.70;5.10;;;28.00;43.00;;;;;;5088641;28;21186;-85
2022/08/15 01:46:43;;;;;;;7.23;6.47;;;28.10;42.80;;;;;;5081700;28;20530;-87
2022/08/15 01:49:21;;;;;;;5.73;5.13;;;28.10;42.20;;;;;;5079769;28;20921;-86
2022/08/15 01:51:50;;;;;;;7.30;5.77;;;28.00;42.10;;;;;;5081188;28;20454;-85
2022/08/15 01:54:20;;;;;;;6.40;5.57;;;28.10;41.80;;;;;;5058681;28;20466;-84
2022/08/15 01:56:49;;;;;;;7.30;5.27;;;28.10;41.70;;;;;;5053859;28;20855;-85
2022/08/15 01:59:19;;;;;;;6.40;5.80;;;28.00;41.80;;;;;;5072661;28;20474;-85
2022/08/15 02:01:49;;;;;;;5.50;5.00;;;28.00;41.70;;;;;;5073307;28;20455;-86
2022/08/15 02:04:22;;;;;;;6.10;5.50;;;27.90;41.70;;;;;;5069193;28;20460;-85
2022/08/15 02:06:49;;;;;;;11.50;6.37;;;27.90;41.70;;;;;;5072108;28;20440;-86
2022/08/15 02:09:19;;;;;;;6.03;4.70;;;28.00;41.60;;;;;;5073141;28;20467;-86
2022/08/15 02:11:51;;;;;;;8.17;5.67;;;28.00;41.50;;;;;;5043645;28;20452;-86
2022/08/15 02:14:20;;;;;;;5.60;5.00;;;28.00;41.30;;;;;;5074191;28;20451;-85
2022/08/15 02:16:48;;;;;;;11.97;5.60;;;28.00;41.00;;;;;;5074793;28;20468;-85
2022/08/15 02:19:17;;;;;;;7.97;5.40;;;27.80;40.40;;;;;;5068245;28;20563;-85
2022/08/15 02:21:46;;;;;;;6.00;5.40;;;27.50;40.60;;;;;;5068162;28;20439;-85
2022/08/15 02:24:17;;;;;;;6.13;5.53;;;27.50;41.00;;;;;;5078083;28;20459;-86
2022/08/15 02:26:44;;;;;;;6.87;6.17;;;27.60;41.20;;;;;;5089965;28;20448;-88
2022/08/15 02:29:13;;;;;;;6.10;5.50;;;27.70;41.20;;;;;;5068158;28;20569;-85
2022/08/15 02:31:41;;;;;;;6.80;5.77;;;27.70;41.40;;;;;;5055885;28;20459;-85
2022/08/15 02:34:09;;;;;;;6.40;5.80;;;27.70;41.80;;;;;;5056340;28;21133;-85
2022/08/15 02:36:39;;;;;;;5.90;5.40;;;27.70;42.20;;;;;;5081194;28;20469;-88
2022/08/15 02:39:10;;;;;;;6.53;5.90;;;27.70;42.10;;;;;;5058649;28;20461;-86
2022/08/15 02:41:40;;;;;;;7.93;6.17;;;27.80;42.70;;;;;;5076208;28;20447;-87
2022/08/15 02:44:08;;;;;;;5.97;5.37;;;27.70;42.10;;;;;;5057722;28;20452;-86
2022/08/15 02:46:38;;;;;;;7.53;6.73;;;27.70;41.80;;;;;;5074781;28;21029;-85
2022/08/15 02:49:11;;;;;;;6.83;5.93;;;27.80;42.20;;;;;;5074603;28;20478;-85
2022/08/15 02:51:40;;;;;;;5.97;5.40;;;27.80;41.90;;;;;;5057051;28;20443;-84
2022/08/15 02:54:09;;;;;;;6.60;5.37;;;27.80;41.90;;;;;;5066406;28;20443;-86
2022/08/15 02:56:38;;;;;;;7.73;7.00;;;27.80;41.90;;;;;;5084152;28;20463;-86
2022/08/15 02:59:07;;;;;;;8.77;5.67;;;27.80;41.60;;;;;;5066653;28;20463;-84
2022/08/15 03:01:38;;;;;;;6.00;5.50;;;27.70;41.70;;;;;;5076663;28;20449;-84
2022/08/15 03:04:08;;;;;;;6.77;5.77;;;27.70;42.00;;;;;;5057551;28;20482;-85
2022/08/15 03:06:37;;;;;;;6.87;6.20;;;27.70;41.80;;;;;;5074575;28;20455;-84
2022/08/15 03:09:09;;;;;;;6.43;5.80;;;27.60;42.10;;;;;;5083684;28;21008;-86
2022/08/15 03:11:45;;;;;;;6.10;5.53;;;27.60;42.50;;;;;;5073595;28;20451;-85
2022/08/15 03:14:16;;;;;;;6.13;5.63;;;27.60;42.50;;;;;;5073046;28;21100;-86
2022/08/15 03:16:47;;;;;;;8.63;6.40;;;27.60;42.60;;;;;;5060885;28;20443;-87
2022/08/15 03:19:18;;;;;;;5.93;5.30;;;27.60;42.70;;;;;;5054694;28;20912;-85
2022/08/15 03:21:46;;;;;;;6.23;5.63;;;27.60;42.70;;;;;;5055501;28;20465;-85
2022/08/15 03:24:14;;;;;;;7.23;6.10;;;27.60;42.80;;;;;;5052906;28;20458;-85
2022/08/15 03:26:46;;;;;;;6.23;5.63;;;27.60;43.00;;;;;;5077219;28;21156;-86
2022/08/15 03:29:16;;;;;;;6.67;6.07;;;27.60;43.10;;;;;;5058354;28;20463;-86
2022/08/15 03:31:48;;;;;;;6.40;5.80;;;27.50;43.30;;;;;;5076931;28;20964;-86
2022/08/15 03:34:22;;;;;;;6.93;6.20;;;27.50;43.50;;;;;;5073303;28;20500;-85
2022/08/15 03:36:50;;;;;;;6.40;5.80;;;27.50;44.00;;;;;;5065363;28;20456;-85
2022/08/15 03:39:17;;;;;;;6.47;5.87;;;27.50;44.70;;;;;;5071881;28;20467;-85
2022/08/15 03:41:45;;;;;;;6.97;6.27;;;27.40;44.50;;;;;;5065479;28;20817;-86
2022/08/15 03:44:13;;;;;;;6.90;6.17;;;27.40;44.60;;;;;;5064732;28;21185;-84
2022/08/15 03:46:41;;;;;;;7.80;7.07;;;27.40;44.50;;;;;;5083401;28;20447;-85
2022/08/15 03:49:10;;;;;;;7.97;6.93;;;27.40;44.50;;;;;;5073597;28;21339;-87
2022/08/15 03:51:40;;;;;;;6.23;5.63;;;27.40;44.40;;;;;;5078652;28;20460;-87
2022/08/15 03:54:12;;;;;;;7.33;6.13;;;27.40;43.20;;;;;;5070819;28;20455;-88
2022/08/15 03:56:39;;;;;;;6.20;5.70;;;27.40;42.50;;;;;;5066237;28;20454;-87
2022/08/15 03:59:11;;;;;;;11.17;5.87;;;27.40;43.00;;;;;;5065429;28;20477;-87
2022/08/15 04:01:39;;;;;;;6.80;6.10;;;27.40;43.30;;;;;;5055453;28;20492;-88
2022/08/15 04:04:06;;;;;;;5.33;4.93;;;27.40;43.10;;;;;;5074175;28;20439;-87
2022/08/15 04:06:40;;;;;;;12.60;6.77;;;27.40;43.00;;;;;;5073946;28;20506;-87
2022/08/15 04:09:08;;;;;;;5.90;5.40;;;27.40;43.10;;;;;;5066521;28;20578;-85
2022/08/15 04:11:36;;;;;;;5.10;4.60;;;27.40;42.30;;;;;;5074332;28;20447;-85
2022/08/15 04:14:07;;;;;;;6.80;5.60;;;27.20;42.20;;;;;;5065140;28;20842;-85
2022/08/15 04:16:34;;;;;;;5.83;5.33;;;27.20;43.00;;;;;;5065422;28;20442;-85
2022/08/15 04:19:01;;;;;;;8.90;5.90;;;27.30;43.20;;;;;;5077328;28;20484;-85
2022/08/15 04:21:32;;;;;;;7.27;5.70;;;27.20;43.30;;;;;;5072185;28;20443;-88
2022/08/15 04:24:00;;;;;;;7.40;4.70;;;27.20;42.80;;;;;;5070595;28;20452;-85
2022/08/15 04:26:27;;;;;;;7.13;5.67;;;27.20;42.20;;;;;;5047107;28;20440;-85
2022/08/15 04:28:54;;;;;;;6.23;5.20;;;27.10;43.00;;;;;;5056789;28;20595;-85
2022/08/15 04:31:23;;;;;;;7.37;5.50;;;27.10;44.00;;;;;;5063565;28;20448;-84
2022/08/15 04:33:51;;;;;;;6.23;5.57;;;27.10;44.70;;;;;;5082726;28;20448;-84
2022/08/15 04:36:21;;;;;;;6.37;5.77;;;27.10;44.80;;;;;;5073815;28;20447;-84
2022/08/15 04:38:53;;;;;;;6.50;5.90;;;27.10;44.50;;;;;;5081427;28;20534;-84
2022/08/15 04:41:21;;;;;;;6.93;6.30;;;27.10;45.00;;;;;;5071865;28;20446;-84
2022/08/15 04:43:49;;;;;;;6.80;6.20;;;27.00;46.40;;;;;;5042870;28;20446;-87
2022/08/15 04:46:19;;;;;;;6.60;6.00;;;27.00;45.70;;;;;;5056392;28;20532;-85
2022/08/15 04:48:47;;;;;;;6.23;5.63;;;27.00;46.60;;;;;;5074062;28;20955;-88
2022/08/15 04:51:13;;;;;;;6.63;6.10;;;27.00;46.60;;;;;;5044979;28;21286;-84
2022/08/15 04:53:41;;;;;;;7.80;6.27;;;27.10;46.60;;;;;;5058101;28;20531;-84
2022/08/15 04:56:08;;;;;;;7.90;6.43;;;27.10;46.70;;;;;;5080635;28;20455;-84
2022/08/15 04:58:40;;;;;;;7.63;6.20;;;27.20;46.70;;;;;;5064861;28;20458;-86
2022/08/15 05:01:13;;;;;;;5.43;4.93;;;27.20;46.30;;;;;;5075024;28;20466;-85
2022/08/15 05:03:46;;;;;;;6.00;5.30;;;27.30;46.40;;;;;;5074777;28;20880;-85
2022/08/15 05:06:13;;;;;;;7.67;6.13;;;27.20;45.90;;;;;;5086512;28;20458;-87
2022/08/15 05:08:40;;;;;;;6.67;6.00;;;27.30;46.00;;;;;;5081292;28;20460;-85
2022/08/15 05:11:15;;;;;;;8.40;6.70;;;27.20;46.50;;;;;;5062902;28;20856;-86
2022/08/15 05:13:46;;;;;;;6.80;6.10;;;27.20;46.90;;;;;;5080960;28;20459;-85
2022/08/15 05:16:20;;;;;;;6.73;5.70;;;27.20;46.90;;;;;;5062594;28;20469;-84
2022/08/15 05:18:47;;;;;;;9.90;6.30;;;27.30;46.20;;;;;;5073257;28;20496;-82
2022/08/15 05:21:15;;;;;;;7.63;5.20;;;27.30;46.20;;;;;;5050186;28;20529;-82
2022/08/15 05:23:44;;;;;;;9.30;5.27;;;27.30;45.90;;;;;;5086371;28;20444;-83
2022/08/15 05:26:17;;;;;;;7.57;5.70;;;27.30;45.70;;;;;;5071795;28;21181;-83
2022/08/15 05:28:47;;;;;;;5.87;5.37;;;27.20;45.70;;;;;;5053129;28;21087;-83
2022/08/15 05:31:14;;;;;;;8.73;5.30;;;27.10;46.60;;;;;;5078784;28;21285;-83
2022/08/15 05:33:45;;;;;;;6.43;4.70;;;27.10;46.00;;;;;;5055448;28;20460;-82
2022/08/15 05:36:14;;;;;;;5.73;4.40;;;26.90;45.60;;;;;;5072845;28;20559;-83
2022/08/15 05:38:47;;;;;;;9.43;5.10;;;26.90;45.90;;;;;;5080684;28;20536;-84
2022/08/15 05:41:30;;;;;;;6.33;4.93;;;26.90;45.80;;;;;;5069682;28;20466;-84
2022/08/15 05:44:03;;;;;;;6.70;5.30;;;27.00;45.70;;;;;;5059555;28;20446;-83
2022/08/15 05:46:43;;;;;;;5.90;5.10;;;27.00;46.00;;;;;;5072048;28;20439;-82
2022/08/15 05:49:24;;;;;;;5.23;3.90;;;27.00;45.70;;;;;;5078286;28;21061;-84
2022/08/15 05:52:05;;;;;;;8.40;4.20;;;27.10;45.80;;;;;;5072249;28;20452;-83
2022/08/15 05:54:46;;;;;;;6.60;4.50;;;27.10;45.90;;;;;;5072973;28;20451;-82
2022/08/15 05:57:19;;;;;;;5.70;4.00;;;27.20;45.60;;;;;;5076842;28;20446;-83
2022/08/15 05:59:52;;;;;;;5.60;5.00;;;27.30;45.70;;;;;;5051941;28;20501;-84
2022/08/15 06:02:26;;;;;;;6.63;3.80;;;27.20;45.80;;;;;;5052029;28;20458;-82
2022/08/15 06:04:59;;;;;;;4.90;3.70;;;27.20;45.90;;;;;;5071477;28;20459;-82
2022/08/15 06:07:28;;;;;;;5.37;4.00;;;26.90;46.50;;;;;;5071704;28;20458;-82
2022/08/15 06:09:59;;;;;;;6.53;4.33;;;27.00;46.50;;;;;;5053275;28;20474;-83
2022/08/15 06:12:32;;;;;;;4.40;4.00;;;27.00;47.10;;;;;;5072715;28;20509;-81
2022/08/15 06:15:15;;;;;;;5.97;4.10;;;26.80;47.30;;;;;;5079539;28;20463;-82
2022/08/15 06:17:54;;;;;;;4.20;3.90;;;26.60;47.50;;;;;;5067919;28;20586;-84
2022/08/15 06:20:27;;;;;;;5.17;4.50;;;26.50;47.90;;;;;;5084159;28;20879;-83
2022/08/15 06:23:05;;;;;;;6.30;4.23;;;26.60;47.90;;;;;;5057549;28;20538;-82
2022/08/15 06:25:40;;;;;;;5.23;3.90;;;26.60;48.00;;;;;;5072217;28;20503;-82
2022/08/15 06:28:23;;;;;;;5.80;4.20;;;26.80;47.40;;;;;;5075212;28;20799;-83
2022/08/15 06:31:01;;;;;;;4.53;4.13;;;26.80;47.50;;;;;;5090823;28;21314;-83
2022/08/15 06:33:40;;;;;;;5.57;4.40;;;26.80;47.70;;;;;;5067877;28;20446;-83
2022/08/15 06:36:18;;;;;;;5.53;3.70;;;26.80;47.60;;;;;;5077260;28;20439;-82
2022/08/15 06:38:52;;;;;;;7.23;4.10;;;26.80;47.90;;;;;;5060191;28;20455;-82
2022/08/15 06:41:26;;;;;;;9.70;4.53;;;26.70;48.10;;;;;;5074393;28;20438;-83
2022/08/15 06:43:58;;;;;;;3.77;3.47;;;26.80;47.90;;;;;;5078019;28;20627;-83
2022/08/15 06:46:34;;;;;;;5.27;4.30;;;26.90;48.00;;;;;;5083384;28;21329;-82
2022/08/15 06:49:07;;;;;;;4.53;3.93;;;27.00;47.60;;;;;;5074616;28;20534;-83
2022/08/15 06:51:42;;;;;;;6.43;4.00;;;26.90;47.90;;;;;;5074823;28;20901;-83
2022/08/15 06:54:14;;;;;;;4.33;3.87;;;27.00;47.70;;;;;;5081511;28;20475;-82
2022/08/15 06:56:47;;;;;;;4.67;4.20;;;27.20;47.30;;;;;;5083755;28;20450;-84
2022/08/15 06:59:22;;;;;;;4.40;4.00;;;27.40;47.20;;;;;;5066129;28;20993;-83
2022/08/15 07:01:58;;;;;;;4.90;4.03;;;27.50;47.10;;;;;;5074596;28;20504;-82
2022/08/15 07:04:35;;;;;;;5.10;4.00;;;27.70;46.70;;;;;;5064750;28;20514;-84
2022/08/15 07:07:09;;;;;;;6.77;4.37;;;27.80;46.40;;;;;;5051413;28;20545;-83
2022/08/15 07:09:45;;;;;;;4.00;3.60;;;27.80;46.00;;;;;;5067143;28;20482;-85
2022/08/15 07:12:23;;;;;;;4.80;4.40;;;27.90;46.20;;;;;;5054831;28;20451;-83
2022/08/15 07:14:57;;;;;;;4.87;4.23;;;27.90;46.00;;;;;;5090057;28;21045;-85
2022/08/15 07:17:33;;;;;;;5.27;4.77;;;27.90;46.00;;;;;;5075400;28;21095;-83
2022/08/15 07:20:01;;;;;;;4.77;4.27;;;27.90;46.20;;;;;;5062875;28;20471;-83
2022/08/15 07:22:35;;;;;;;4.57;4.00;;;28.00;46.00;;;;;;5072902;28;20438;-83
2022/08/15 07:25:09;;;;;;;6.87;4.40;;;28.00;46.00;;;;;;5073814;28;20512;-83
2022/08/15 07:27:37;;;;;;;3.90;3.53;;;28.10;45.90;;;;;;5065659;28;20516;-85
2022/08/15 07:30:15;;;;;;;5.93;4.67;;;28.20;45.80;;;;;;5082821;28;20486;-84
2022/08/15 07:32:51;;;;;;;5.23;4.63;;;28.10;46.00;;;;;;5076372;28;21213;-84
2022/08/15 07:35:24;;;;;;;5.37;4.47;;;28.00;45.90;;;;;;5059914;28;20443;-84
2022/08/15 07:37:58;;;;;;;4.83;4.30;;;28.00;45.90;;;;;;5059365;28;20462;-83
2022/08/15 07:40:29;;;;;;;4.80;4.10;;;28.00;46.20;;;;;;5081304;28;20459;-83
2022/08/15 07:42:57;;;;;;;6.03;4.07;;;27.90;46.30;;;;;;5061722;28;20450;-84
2022/08/15 07:45:30;;;;;;;5.00;4.50;;;27.90;46.50;;;;;;5064448;28;20946;-84
2022/08/15 07:48:19;;;;;;;5.50;3.70;;;27.80;46.60;;;;;;5089168;28;20455;-83
2022/08/15 07:51:01;;;;;;;7.63;5.63;;;27.80;46.70;;;;;;5088142;28;20528;-85
2022/08/15 07:53:29;;;;;;;8.50;4.47;;;27.80;46.70;;;;;;5070151;28;20427;-84
2022/08/15 07:56:06;;;;;;;4.43;3.73;;;27.90;46.70;;;;;;5079610;28;20443;-85
2022/08/15 07:58:35;;;;;;;5.03;4.00;;;27.90;46.60;;;;;;5070121;28;20443;-84
2022/08/15 08:01:11;;;;;;;4.93;4.43;;;28.00;46.50;;;;;;5067395;28;20471;-83
2022/08/15 08:03:45;;;;;;;5.90;5.30;;;28.10;46.40;;;;;;5068215;28;20439;-84
2022/08/15 08:06:22;;;;;;;6.13;4.97;;;28.30;45.80;;;;;;5070305;28;20450;-85
2022/08/15 08:08:57;;;;;;;6.03;4.47;;;28.30;45.90;;;;;;5077618;28;20444;-85
2022/08/15 08:11:34;;;;;;;5.17;4.67;;;28.40;46.40;;;;;;5090002;28;20463;-85
2022/08/15 08:14:10;;;;;;;3.77;3.47;;;28.40;45.60;;;;;;5073345;28;20454;-85
2022/08/15 08:16:45;;;;;;;5.83;4.00;;;28.60;45.20;;;;;;5066274;28;20439;-86
2022/08/15 08:19:20;;;;;;;4.73;3.90;;;28.60;44.90;;;;;;5081133;28;20958;-84
2022/08/15 08:21:57;;;;;;;6.90;3.73;;;28.80;44.90;;;;;;5076568;28;20451;-85
2022/08/15 08:24:43;;;;;;;4.70;4.20;;;29.00;44.40;;;;;;5063012;28;20450;-86
2022/08/15 08:27:21;;;;;;;4.13;3.83;;;29.00;44.40;;;;;;5057533;28;20847;-84
2022/08/15 08:29:54;;;;;;;4.43;3.70;;;29.20;44.50;;;;;;5080650;28;20502;-85
2022/08/15 08:32:31;;;;;;;6.03;3.90;;;29.20;44.50;;;;;;5080513;28;20454;-85
2022/08/15 08:35:07;;;;;;;4.80;3.67;;;29.20;44.20;;;;;;5089553;28;20444;-84
2022/08/15 08:37:41;;;;;;;3.60;3.30;;;29.40;44.00;;;;;;5062517;28;20479;-86
2022/08/15 08:43:21;;;;;;;4.50;3.70;;;29.50;43.60;;;;;;5073483;28;20943;-83
2022/08/15 08:45:55;;;;;;;5.47;3.60;;;29.60;43.80;;;;;;5089308;28;20443;-83
2022/08/15 08:48:36;;;;;;;6.40;4.40;;;29.30;44.00;;;;;;5071470;28;21271;-84
2022/08/15 08:51:15;;;;;;;4.50;3.30;;;28.90;45.20;;;;;;5071668;28;20537;-84
2022/08/15 08:53:49;;;;;;;5.00;4.00;;;28.80;45.80;;;;;;5056485;28;20532;-83
2022/08/15 08:56:26;;;;;;;5.13;4.07;;;28.80;45.10;;;;;;5067909;28;20835;-83
2022/08/15 08:59:02;;;;;;;5.83;3.63;;;28.60;46.60;;;;;;5089171;28;20455;-83
2022/08/15 09:01:31;;;;;;;3.80;3.50;;;28.70;46.30;;;;;;5068253;28;20441;-84
2022/08/15 09:04:02;;;;;;;4.47;4.07;;;28.80;46.10;;;;;;5090824;28;20446;-82
2022/08/15 09:06:38;;;;;;;3.80;3.50;;;29.10;46.00;;;;;;5090783;28;21344;-84
2022/08/15 09:09:11;;;;;;;4.80;4.10;;;29.30;44.90;;;;;;5090028;28;21114;-84
2022/08/15 09:11:42;;;;;;;4.40;3.90;;;29.30;44.90;;;;;;5089695;28;20464;-83
2022/08/15 09:14:17;;;;;;;5.53;3.53;;;29.50;44.80;;;;;;5077606;28;20505;-84
2022/08/15 09:16:45;;;;;;;4.57;4.17;;;29.60;44.30;;;;;;5083464;28;20612;-84
2022/08/15 09:19:16;;;;;;;3.60;3.30;;;29.70;44.30;;;;;;5054002;28;20452;-84
2022/08/15 09:21:46;;;;;;;4.20;3.60;;;29.10;44.60;;;;;;5089142;28;20443;-84
2022/08/15 09:24:15;;;;;;;3.83;3.43;;;28.90;45.10;;;;;;5084907;28;20453;-85
2022/08/15 09:26:49;;;;;;;5.00;4.00;;;28.60;45.70;;;;;;5070139;28;20962;-85
2022/08/15 09:29:24;;;;;;;5.47;3.00;;;28.60;45.50;;;;;;5086632;28;20463;-84
2022/08/15 09:32:01;;;;;;;3.40;3.10;;;28.30;46.40;;;;;;5069070;28;20473;-85
2022/08/15 09:34:46;;;;;;;4.17;3.57;;;28.30;46.30;;;;;;5088677;28;20444;-86
2022/08/15 09:37:25;;;;;;;3.27;2.97;;;28.70;45.90;;;;;;5087857;28;20436;-85
2022/08/15 09:40:12;;;;;;;3.33;3.13;;;28.90;44.90;;;;;;5060985;28;20561;-84
2022/08/15 09:42:55;;;;;;;4.30;3.13;;;29.10;43.80;;;;;;5086228;28;20451;-82
2022/08/15 09:45:41;;;;;;;4.90;3.90;;;29.30;43.70;;;;;;5086312;28;20443;-84
2022/08/15 09:48:42;;;;;;;4.50;3.30;;;29.60;43.80;;;;;;5068432;28;20455;-83
2022/08/15 09:51:21;;;;;;;9.13;3.10;;;29.60;43.10;;;;;;5084751;28;20619;-86
2022/08/15 09:54:05;;;;;;;3.50;3.20;;;29.70;43.00;;;;;;5078141;28;20441;-84
2022/08/15 09:56:35;;;;;;;3.97;3.43;;;29.50;43.20;;;;;;5069134;28;20444;-85
2022/08/15 09:59:09;;;;;;;3.53;3.23;;;29.40;42.70;;;;;;5084289;28;20447;-84
2022/08/15 10:01:45;;;;;;;3.77;3.33;;;29.40;42.80;;;;;;5075320;28;20447;-85
2022/08/15 10:04:15;;;;;;;6.80;3.53;;;29.50;42.80;;;;;;5088334;28;20461;-85
2022/08/15 10:06:53;;;;;;;5.57;3.23;;;29.70;42.60;;;;;;5068572;28;20451;-88
2022/08/15 10:09:36;;;;;;;5.10;3.47;;;29.90;42.40;;;;;;5084552;28;20522;-87
2022/08/15 10:12:28;;;;;;;7.10;3.43;;;30.00;42.10;;;;;;5067250;28;20459;-88
2022/08/15 10:15:02;;;;;;;3.53;3.33;;;30.00;42.00;;;;;;5085667;28;21264;-87
2022/08/15 10:17:45;;;;;;;3.50;3.20;;;30.00;42.10;;;;;;5053816;28;22547;-88
2022/08/15 10:20:49;;;;;;;3.70;2.70;;;30.10;42.30;;;;;;5067234;28;20524;-86
2022/08/15 10:23:16;;;;;;;3.10;2.90;;;30.20;41.80;;;;;;5054757;28;21071;-88
2022/08/15 10:25:47;;;;;;;3.20;2.87;;;30.50;40.80;;;;;;5085919;28;20447;-87
2022/08/15 10:28:23;;;;;;;4.23;3.80;;;30.70;40.40;;;;;;5085357;28;20453;-87
2022/08/15 10:31:24;;;;;;;3.43;3.13;;;30.90;40.20;;;;;;5068336;28;20480;-87
2022/08/15 10:33:52;;;;;;;3.47;3.07;;;31.30;38.80;;;;;;5071930;28;20525;-87
2022/08/15 10:36:25;;;;;;;3.30;3.00;;;31.50;38.60;;;;;;5087605;28;20444;-87
2022/08/15 10:39:03;;;;;;;4.10;3.00;;;31.40;38.40;;;;;;5076806;28;20981;-87
2022/08/15 10:41:40;;;;;;;3.40;3.20;;;31.70;38.00;;;;;;5049050;28;20477;-88
2022/08/15 10:44:15;;;;;;;3.90;3.10;;;31.90;37.90;;;;;;5088285;28;20448;-88
2022/08/15 10:46:53;;;;;;;3.60;3.30;;;32.20;36.70;;;;;;5074927;28;20938;-88
2022/08/15 10:49:30;;;;;;;3.47;3.03;;;31.90;36.90;;;;;;5085620;28;21306;-86
2022/08/15 10:52:17;;;;;;;3.20;2.57;;;31.90;37.20;;;;;;5063398;28;21282;-87
2022/08/15 10:55:03;;;;;;;2.70;2.53;;;32.00;37.20;;;;;;5069042;28;21255;-89
2022/08/15 10:57:39;;;;;;;3.23;2.90;;;32.20;36.00;;;;;;5085782;28;20438;-88
2022/08/15 11:00:08;;;;;;;2.90;2.70;;;32.30;36.00;;;;;;5056914;28;20907;-87
2022/08/15 11:02:41;;;;;;;3.10;2.50;;;32.10;36.30;;;;;;5073556;28;20802;-87
2022/08/15 11:05:14;;;;;;;3.40;2.70;;;32.10;35.50;;;;;;5075255;28;20459;-87
2022/08/15 11:07:47;;;;;;;2.37;2.17;;;32.00;35.90;;;;;;5076036;28;20478;-86
2022/08/15 11:10:17;;;;;;;2.47;2.37;;;32.10;35.30;;;;;;5090231;28;21533;-86
2022/08/15 11:12:50;;;;;;;2.70;2.50;;;32.40;35.40;;;;;;5089671;28;20463;-88
2022/08/15 11:15:19;;;;;;;2.80;2.60;;;32.40;35.10;;;;;;5065087;28;20442;-86
2022/08/15 11:17:51;;;;;;;2.90;2.70;;;32.00;35.00;;;;;;5093113;28;20461;-87
2022/08/15 11:20:23;;;;;;;2.70;2.50;;;31.70;35.00;;;;;;5089400;28;20513;-87
2022/08/15 11:22:55;;;;;;;2.97;2.57;;;31.50;35.50;;;;;;5090243;28;20768;-88
2022/08/15 11:25:26;;;;;;;2.50;2.30;;;31.60;35.20;;;;;;5089280;28;20513;-87
2022/08/15 11:28:03;;;;;;;3.80;2.67;;;31.60;35.70;;;;;;5090693;28;20442;-87
2022/08/15 11:30:33;;;;;;;3.40;2.30;;;31.70;35.50;;;;;;5090912;28;20470;-87
2022/08/15 11:33:19;;;;;;;2.60;2.40;;;32.00;35.00;;;;;;5078978;28;20529;-87
2022/08/15 11:35:46;;;;;;;2.60;2.40;;;32.20;34.80;;;;;;5093172;28;20885;-87
2022/08/15 11:38:16;;;;;;;6.90;3.20;;;32.30;34.50;;;;;;5092121;28;20439;-89
2022/08/15 11:40:49;;;;;;;2.40;2.17;;;32.40;34.10;;;;;;5088902;28;21088;-86
2022/08/15 11:43:18;;;;;;;2.60;2.40;;;32.80;34.00;;;;;;5089942;28;20459;-88
2022/08/15 11:45:48;;;;;;;3.03;2.63;;;33.20;32.60;;;;;;5091804;28;20935;-88
2022/08/15 11:48:20;;;;;;;2.90;2.53;;;32.80;33.20;;;;;;5069296;28;20440;-87
2022/08/15 11:50:57;;;;;;;2.60;2.40;;;32.50;33.40;;;;;;5086102;28;20998;-89
2022/08/15 11:53:29;;;;;;;2.40;2.20;;;32.20;33.00;;;;;;5086152;28;21228;-88
2022/08/15 11:55:56;;;;;;;2.43;2.10;;;32.00;34.00;;;;;;5089275;28;20506;-87
2022/08/15 11:58:32;;;;;;;2.43;2.33;;;32.10;34.10;;;;;;5075068;28;20454;-87
2022/08/15 12:01:19;;;;;;;2.60;2.40;;;32.10;33.80;;;;;;5087601;28;20474;-87
2022/08/15 12:04:04;;;;;;;2.00;1.90;;;31.70;34.20;;;;;;5070860;28;20776;-89
2022/08/15 12:06:34;;;;;;;2.30;2.10;;;31.90;34.60;;;;;;5072798;28;20455;-88
2022/08/15 12:09:14;;;;;;;2.80;2.27;;;31.90;33.90;;;;;;5071417;28;20447;-86
2022/08/15 12:11:45;;;;;;;2.50;2.30;;;32.00;33.60;;;;;;5088161;28;20505;-88
2022/08/15 12:14:20;;;;;;;2.07;1.87;;;32.10;33.20;;;;;;5071697;28;20451;-89
2022/08/15 12:16:51;;;;;;;2.57;2.37;;;32.10;33.20;;;;;;5060470;28;20449;-88
2022/08/15 12:19:29;;;;;;;2.50;2.30;;;32.10;33.10;;;;;;5072202;28;21081;-86
2022/08/15 12:21:58;;;;;;;2.10;1.90;;;32.20;33.10;;;;;;5071000;28;20783;-86
2022/08/15 12:24:27;;;;;;;2.93;2.60;;;32.10;32.80;;;;;;5073593;28;20451;-88
2022/08/15 12:26:56;;;;;;;2.10;1.90;;;31.80;33.40;;;;;;5089874;28;20458;-86
2022/08/15 12:29:25;;;;;;;2.83;2.50;;;32.10;33.50;;;;;;5072240;28;20827;-87
2022/08/15 12:31:53;;;;;;;2.00;1.90;;;32.60;33.30;;;;;;5069655;28;20468;-87
2022/08/15 12:34:23;;;;;;;2.07;1.97;;;33.00;32.10;;;;;;5088758;28;20456;-87
2022/08/15 12:36:51;;;;;;;2.70;2.33;;;33.20;31.60;;;;;;5091554;28;20439;-86
2022/08/15 12:39:20;;;;;;;4.63;2.90;;;32.80;32.20;;;;;;5089934;28;20477;-87
2022/08/15 12:41:51;;;;;;;2.83;2.40;;;32.60;32.80;;;;;;5062115;28;20443;-86
2022/08/15 12:44:23;;;;;;;2.10;2.00;;;32.60;32.90;;;;;;5058541;28;20865;-87
2022/08/15 12:46:52;;;;;;;2.60;2.40;;;32.50;32.80;;;;;;5048243;28;21093;-88
2022/08/15 12:49:19;;;;;;;2.33;2.23;;;32.30;33.40;;;;;;5052618;28;20475;-87
2022/08/15 12:51:47;;;;;;;2.40;2.20;;;32.20;34.20;;;;;;5036851;28;20479;-87
2022/08/15 12:54:15;;;;;;;3.20;1.90;;;31.90;34.10;;;;;;5051007;28;20879;-88
2022/08/15 12:56:44;;;;;;;2.57;2.37;;;32.00;33.10;;;;;;5060835;28;21121;-87
2022/08/15 12:59:12;;;;;;;2.70;2.30;;;32.30;32.70;;;;;;5049751;28;20570;-87
2022/08/15 13:01:42;;;;;;;2.60;2.40;;;32.70;32.60;;;;;;5060798;28;20456;-88
2022/08/15 13:04:13;;;;;;;2.20;2.10;;;32.70;32.40;;;;;;5087473;28;20443;-86
2022/08/15 13:06:46;;;;;;;2.80;2.50;;;32.70;32.90;;;;;;5062401;28;20533;-87
2022/08/15 13:09:14;;;;;;;3.20;2.60;;;32.50;32.70;;;;;;5067843;28;20518;-87
2022/08/15 13:11:42;;;;;;;2.20;2.10;;;32.10;33.40;;;;;;5085332;28;20451;-87
2022/08/15 13:14:12;;;;;;;3.27;2.80;;;31.90;33.70;;;;;;5077512;28;20444;-89
2022/08/15 13:16:39;;;;;;;2.53;2.40;;;31.60;33.90;;;;;;5064080;28;20479;-88
2022/08/15 13:19:09;;;;;;;3.03;2.70;;;31.30;35.20;;;;;;5043319;28;20467;-88
2022/08/15 13:24:22;;;;;;;4.80;3.00;;;31.30;35.70;;;;;;5067234;28;20582;-89